This is the latest recevied weather packets stored in our database for station/object OZ7MKS. If no packets are shown the sender has not sent any weather packets the latest 10 day(s).
| Time | Temp. | Humidity | Pressure | Rain* | Wind** | Luminosity | Snow |
|---|---|---|---|---|---|---|---|
| 1778101504 | 5° C | 80% | 1013.8 hPa | 0 mm | - | - | - |
| 1778100004 | 5.56° C | 79% | 1013.8 hPa | 0 mm | - | - | - |
| 1778099104 | 5.56° C | 79% | 1013.7 hPa | 0 mm | - | - | - |
| 1778098804 | 5.56° C | 78% | 1013.7 hPa | 0 mm | - | - | - |
| 1778097603 | 5.56° C | 77% | 1013.7 hPa | 0 mm | - | - | - |
| 1778095504 | 6.67° C | 69% | 1013.5 hPa | 0 mm | - | - | - |
| 1778094304 | 7.22° C | 67% | 1013.3 hPa | 0 mm | - | - | - |
| 1778091604 | 8.89° C | 64% | 1013.1 hPa | 0 mm | - | - | - |
| 1778090704 | 8.89° C | 66% | 1012.9 hPa | 0 mm | - | - | - |
| 1778089804 | 9.44° C | 65% | 1012.8 hPa | 0 mm | - | - | - |
| 1778089503 | 9.44° C | 64% | 1012.7 hPa | 0 mm | - | - | - |
| 1778086804 | 11.11° C | 62% | 1012.6 hPa | 0 mm | - | - | - |
| 1778083804 | 12.78° C | 61% | 1012.4 hPa | 0 mm | - | - | - |
| 1778083504 | 12.78° C | 62% | 1012.3 hPa | 0 mm | - | - | - |
| 1778082904 | 12.78° C | 61% | 1012.4 hPa | 0 mm | - | - | - |
| 1778082604 | 12.78° C | 60% | 1012.3 hPa | 0 mm | - | - | - |
| 1778081704 | 13.33° C | 61% | 1012.3 hPa | 0 mm | - | - | - |
| 1778081404 | 13.33° C | 60% | 1012.3 hPa | 0 mm | - | - | - |
| 1778080805 | 13.33° C | 58% | 1012.2 hPa | 0 mm | - | - | - |
| 1778079304 | 14.44° C | 57% | 1012.2 hPa | 0 mm | - | - | - |
| 1778076904 | 14.44° C | 57% | 1012.1 hPa | 0 mm | - | - | - |
| 1778076004 | 13.33° C | 58% | 1012.2 hPa | 0 mm | - | - | - |
| 1778073904 | 13.89° C | 61% | 1012.2 hPa | 0 mm | - | - | - |
| 1778072704 | 13.89° C | 61% | 1012.3 hPa | 0 mm | - | - | - |
| 1778072104 | 13.89° C | 60% | 1012.4 hPa | 0 mm | - | - | - |
* Rain latest hour (hover to see other rain measurements)
** Current wind speed in m/s (hover to see current wind gust speed)